createdAt,value
2022-11-19T00:01:17.305Z,2.03
2022-11-19T00:03:20.484Z,2.07
2022-11-19T00:05:22.181Z,2.10
2022-11-19T00:07:23.895Z,1.90
2022-11-19T00:09:25.715Z,2.13
2022-11-19T00:11:46.762Z,1.93
2022-11-19T00:13:50.174Z,2.00
2022-11-19T00:15:52.403Z,2.20
2022-11-19T00:17:54.193Z,2.33
2022-11-19T00:19:56.016Z,2.60
2022-11-19T00:21:57.673Z,2.80
2022-11-19T00:23:59.759Z,2.63
2022-11-19T00:26:19.535Z,2.70
2022-11-19T00:28:21.179Z,2.60
2022-11-19T00:30:46.214Z,2.90
2022-11-19T00:32:45.772Z,2.80
2022-11-19T00:34:47.574Z,3.00
2022-11-19T00:36:49.281Z,3.60
2022-11-19T00:38:51.015Z,3.80
2022-11-19T00:40:52.759Z,3.50
2022-11-19T00:43:13.076Z,4.20
2022-11-19T00:45:15.219Z,4.20
2022-11-19T00:47:17.043Z,3.77
2022-11-19T00:49:19.198Z,3.60
2022-11-19T00:51:22.827Z,4.40
2022-11-19T00:53:24.534Z,3.90
2022-11-19T00:55:26.234Z,3.07
2022-11-19T00:57:28.024Z,3.10
2022-11-19T00:59:29.679Z,2.97
2022-11-19T01:01:31.587Z,3.20
2022-11-19T01:03:33.731Z,3.07
2022-11-19T01:05:35.431Z,3.40
2022-11-19T01:07:37.175Z,4.00
2022-11-19T01:09:38.868Z,2.97
2022-11-19T01:11:40.708Z,2.30
2022-11-19T01:13:42.722Z,2.50
2022-11-19T01:15:48.687Z,2.90
2022-11-19T01:17:50.396Z,2.57
2022-11-19T01:19:52.023Z,1.90
2022-11-19T01:21:53.671Z,2.90
2022-11-19T01:23:55.847Z,2.20
2022-11-19T01:25:58.008Z,2.20
2022-11-19T01:27:59.750Z,2.20
2022-11-19T01:30:01.456Z,2.33
2022-11-19T01:32:03.100Z,1.80
2022-11-19T01:34:04.741Z,2.10
2022-11-19T01:36:10.897Z,2.00
2022-11-19T01:38:12.512Z,2.00
2022-11-19T01:40:15.263Z,2.10
2022-11-19T01:42:44.708Z,2.37
2022-11-19T01:45:06.604Z,2.10
2022-11-19T01:47:08.351Z,2.10
2022-11-19T01:49:19.233Z,1.87
2022-11-19T01:51:29.532Z,2.47
2022-11-19T01:53:33.624Z,2.43
2022-11-19T01:55:37.223Z,2.23
2022-11-19T01:57:40.335Z,1.97
2022-11-19T01:59:43.719Z,2.10
2022-11-19T02:01:45.496Z,2.80
2022-11-19T02:03:48.295Z,2.90
2022-11-19T02:05:50.188Z,2.40
2022-11-19T02:07:57.691Z,2.60
2022-11-19T02:10:05.440Z,2.20
2022-11-19T02:12:14.919Z,1.97
2022-11-19T02:14:22.300Z,2.60
2022-11-19T02:16:35.123Z,2.10
2022-11-19T02:18:52.566Z,2.17
2022-11-19T02:21:02.121Z,2.20
2022-11-19T02:23:22.380Z,2.70
2022-11-19T02:25:39.384Z,1.90
2022-11-19T02:27:55.981Z,2.30
2022-11-19T02:30:03.679Z,2.00
2022-11-19T02:32:16.028Z,2.00
2022-11-19T02:34:27.702Z,1.83
2022-11-19T02:36:43.519Z,2.10
2022-11-19T02:38:51.650Z,1.70
2022-11-19T02:41:02.399Z,1.70
2022-11-19T02:43:28.574Z,1.83
2022-11-19T02:45:51.975Z,1.30
2022-11-19T05:03:44.457Z,4.20
2022-11-19T05:05:46.374Z,3.40
2022-11-19T05:07:48.083Z,4.10
2022-11-19T05:09:50.104Z,4.20
2022-11-19T05:11:51.727Z,4.50
2022-11-19T05:13:53.392Z,4.37
2022-11-19T05:15:55.225Z,4.40
2022-11-19T05:17:56.873Z,4.17
2022-11-19T05:20:00.238Z,5.10
2022-11-19T05:22:01.973Z,4.87
2022-11-19T05:24:03.802Z,5.87
2022-11-19T05:26:05.819Z,4.90
2022-11-19T05:28:07.593Z,5.20
2022-11-19T05:30:09.879Z,4.70
2022-11-19T05:32:11.526Z,5.50
2022-11-19T05:34:13.169Z,5.47
2022-11-19T05:36:14.913Z,5.20
2022-11-19T05:38:16.705Z,5.47
2022-11-19T05:40:18.610Z,4.97
2022-11-19T05:42:20.235Z,5.57
2022-11-19T05:44:22.128Z,5.40
2022-11-19T05:46:23.789Z,4.60
2022-11-19T05:48:25.391Z,5.10
2022-11-19T05:50:27.062Z,5.00
2022-11-19T05:52:28.854Z,4.30
2022-11-19T05:54:30.549Z,4.73
2022-11-19T05:56:32.367Z,5.67
2022-11-19T05:58:34.100Z,4.97
2022-11-19T06:00:35.816Z,5.17
2022-11-19T06:02:37.595Z,4.73
2022-11-19T06:04:39.457Z,5.30
2022-11-19T06:06:41.169Z,5.20
2022-11-19T06:08:42.850Z,5.73
2022-11-19T06:10:44.772Z,5.80
2022-11-19T06:12:46.453Z,6.00
2022-11-19T06:14:48.121Z,6.10
2022-11-19T06:17:02.493Z,5.10
2022-11-19T06:19:04.149Z,5.80
2022-11-19T06:21:11.928Z,6.13
2022-11-19T06:23:13.939Z,5.83
2022-11-19T06:25:15.651Z,6.20
2022-11-19T06:27:17.439Z,5.90
2022-11-19T06:29:19.878Z,6.40
2022-11-19T06:31:22.641Z,6.90
2022-11-19T06:33:24.304Z,6.60
2022-11-19T06:35:25.944Z,6.70
2022-11-19T06:37:27.691Z,5.77
2022-11-19T06:39:29.513Z,7.10
2022-11-19T06:41:31.196Z,6.97
2022-11-19T06:43:33.067Z,7.10
2022-11-19T06:45:34.749Z,6.70
2022-11-19T06:47:37.559Z,7.00
2022-11-19T06:49:39.324Z,7.43
2022-11-19T06:51:41.076Z,7.23
2022-11-19T06:53:42.786Z,7.60
2022-11-19T06:55:44.627Z,7.53
2022-11-19T06:57:46.295Z,6.77
2022-11-19T06:59:48.076Z,7.13
2022-11-19T07:01:49.743Z,7.00
2022-11-19T07:03:51.374Z,7.43
2022-11-19T07:05:59.595Z,7.03
2022-11-19T07:08:03.262Z,7.17
2022-11-19T07:10:05.699Z,6.77
2022-11-19T07:12:08.044Z,6.83
2022-11-19T07:14:09.766Z,88.00
2022-11-19T07:16:11.487Z,31.53
2022-11-19T07:18:13.960Z,11.13
2022-11-19T07:20:16.676Z,8.27
2022-11-19T07:22:18.330Z,23.63
2022-11-19T07:24:20.098Z,15.27
2022-11-19T07:26:21.863Z,7.27
2022-11-19T07:28:23.678Z,7.37
2022-11-19T07:30:25.428Z,8.63
2022-11-19T07:32:27.252Z,6.10
2022-11-19T07:34:29.085Z,5.53
2022-11-19T07:36:30.716Z,5.00
2022-11-19T07:38:36.782Z,5.20
2022-11-19T07:40:38.973Z,5.10
2022-11-19T07:42:49.863Z,4.57
2022-11-19T07:44:54.826Z,4.97
2022-11-19T07:46:57.069Z,4.73
2022-11-19T07:48:59.268Z,3.87
2022-11-19T07:51:01.056Z,4.30
2022-11-19T07:53:02.737Z,3.77
2022-11-19T07:55:04.990Z,4.60
2022-11-19T07:57:06.767Z,3.80
2022-11-19T07:59:08.534Z,3.77
2022-11-19T08:01:18.307Z,3.67
2022-11-19T08:03:20.225Z,4.40
2022-11-19T08:05:21.875Z,4.33
2022-11-19T08:07:24.803Z,3.70
2022-11-19T08:09:26.521Z,3.50
2022-11-19T08:11:28.838Z,4.10
2022-11-19T08:13:30.729Z,4.60
2022-11-19T08:15:33.684Z,4.00
2022-11-19T08:17:54.050Z,4.17
2022-11-19T08:19:55.703Z,3.67
2022-11-19T08:21:57.360Z,4.10
2022-11-19T08:23:59.002Z,4.40
2022-11-19T08:26:01.407Z,4.33
2022-11-19T08:28:04.185Z,4.00
2022-11-19T08:30:06.420Z,3.23
2022-11-19T08:32:08.115Z,3.43
2022-11-19T08:34:09.805Z,3.40
2022-11-19T08:36:11.782Z,3.10
2022-11-19T08:38:13.546Z,3.30
2022-11-19T08:40:15.751Z,3.77
2022-11-19T08:42:36.122Z,3.40
2022-11-19T08:44:38.503Z,3.17
2022-11-19T08:46:40.877Z,3.10
2022-11-19T08:48:42.568Z,3.47
2022-11-19T08:50:44.267Z,2.70
2022-11-19T08:52:45.958Z,2.87
2022-11-19T08:54:47.699Z,3.33
2022-11-19T08:56:49.449Z,2.53
2022-11-19T08:58:54.061Z,3.10
2022-11-19T09:00:56.375Z,2.90
2022-11-19T09:02:58.041Z,2.60
2022-11-19T09:04:59.731Z,2.77
2022-11-19T09:07:01.494Z,2.87
2022-11-19T09:09:04.381Z,2.70
2022-11-19T09:11:24.096Z,2.67
2022-11-19T09:13:26.065Z,2.50
2022-11-19T09:15:28.200Z,2.20
2022-11-19T09:17:29.888Z,2.30
2022-11-19T09:19:31.564Z,2.60
2022-11-19T09:21:33.232Z,2.50
2022-11-19T09:23:35.315Z,3.00
2022-11-19T09:25:36.956Z,3.33
2022-11-19T09:27:39.124Z,19.23
2022-11-19T09:29:40.797Z,33.80
2022-11-19T09:31:42.440Z,7.70
2022-11-19T09:33:47.100Z,3.20
2022-11-19T09:35:48.867Z,3.00
2022-11-19T09:37:50.560Z,2.63
2022-11-19T09:39:52.407Z,2.97
2022-11-19T09:42:11.718Z,3.47
2022-11-19T09:44:32.025Z,2.93
2022-11-19T09:46:51.864Z,2.40
2022-11-19T09:48:59.849Z,3.20
2022-11-19T09:51:15.010Z,3.10
2022-11-19T09:53:19.823Z,3.27
2022-11-19T09:55:36.136Z,2.97
2022-11-19T09:57:52.800Z,2.93
2022-11-19T09:59:58.997Z,2.57
2022-11-19T10:02:00.677Z,2.60
2022-11-19T10:04:02.384Z,3.60
2022-11-19T10:06:06.800Z,2.83
2022-11-19T10:08:15.538Z,3.20
2022-11-19T10:10:42.975Z,3.10
2022-11-19T10:12:44.760Z,3.03
2022-11-19T10:14:49.377Z,2.30
2022-11-19T10:16:59.753Z,2.27
2022-11-19T10:19:12.103Z,2.00
2022-11-19T10:21:41.294Z,2.13
2022-11-19T10:24:11.649Z,2.33
2022-11-19T10:26:16.919Z,2.40
2022-11-19T10:28:23.489Z,2.17
2022-11-19T10:30:28.895Z,2.30
2022-11-19T10:32:40.191Z,2.60
2022-11-19T10:34:42.247Z,2.20
2022-11-19T10:36:48.988Z,1.67
2022-11-19T10:38:53.533Z,2.20
2022-11-19T10:41:03.927Z,1.80
2022-11-19T10:43:41.656Z,2.30
2022-11-19T10:45:43.400Z,2.40
2022-11-19T10:47:50.434Z,2.20
2022-11-19T10:49:54.296Z,2.27
2022-11-19T10:51:55.999Z,2.10
2022-11-19T10:53:57.903Z,2.30
2022-11-19T10:56:22.277Z,2.00
2022-11-19T10:58:42.697Z,2.20
2022-11-19T11:00:44.892Z,2.30
2022-11-19T11:02:52.317Z,2.57
2022-11-19T11:05:13.212Z,2.93
2022-11-19T11:07:15.275Z,2.70
2022-11-19T11:09:36.583Z,3.93
2022-11-19T11:12:08.044Z,2.20
2022-11-19T11:14:29.954Z,2.50
2022-11-19T11:16:45.356Z,1.80
2022-11-19T11:18:48.461Z,2.00
2022-11-19T11:20:52.112Z,1.70
2022-11-19T11:23:06.572Z,1.60
2022-11-19T11:25:25.685Z,1.60
2022-11-19T11:27:33.789Z,1.67
2022-11-19T11:29:35.452Z,2.30
2022-11-19T11:31:40.267Z,2.10
2022-11-19T11:33:54.522Z,1.67
2022-11-19T11:36:01.996Z,1.93
2022-11-19T11:38:05.043Z,1.80
2022-11-19T11:40:07.424Z,1.80
2022-11-19T11:42:17.552Z,1.53
2022-11-19T11:44:23.403Z,2.10
2022-11-19T11:46:25.132Z,1.97
2022-11-19T11:48:43.664Z,2.20
2022-11-19T11:50:46.392Z,2.07
2022-11-19T11:52:51.486Z,1.97
2022-11-19T11:55:12.538Z,1.97
2022-11-19T11:57:18.323Z,2.00
2022-11-19T11:59:25.277Z,2.27
2022-11-19T12:01:27.000Z,2.40
2022-11-19T12:03:31.147Z,1.70
2022-11-19T12:05:54.898Z,2.27
2022-11-19T12:08:06.666Z,2.03
2022-11-19T12:10:27.075Z,1.87
2022-11-19T12:12:34.497Z,1.80
2022-11-19T12:14:53.245Z,2.23
2022-11-19T12:17:01.073Z,2.83
2022-11-19T12:19:21.490Z,2.20
2022-11-19T12:21:32.521Z,2.70
2022-11-19T12:23:47.802Z,2.60
2022-11-19T12:26:12.617Z,1.80
2022-11-19T12:28:44.229Z,2.23
2022-11-19T12:31:13.798Z,2.53
2022-11-19T12:33:24.224Z,2.70
2022-11-19T12:35:25.832Z,2.40
2022-11-19T12:38:01.700Z,2.20
2022-11-19T12:40:21.812Z,2.40
2022-11-19T12:42:56.497Z,2.23
2022-11-19T12:45:06.084Z,2.33
2022-11-19T12:47:45.138Z,2.80
2022-11-19T12:50:05.693Z,3.10
2022-11-19T12:52:38.245Z,2.50
2022-11-19T12:55:08.877Z,2.53
2022-11-19T12:57:30.552Z,2.80
2022-11-19T12:59:42.904Z,2.53
2022-11-19T13:01:50.413Z,2.23
2022-11-19T13:04:11.295Z,3.13
2022-11-19T13:06:25.699Z,3.00
2022-11-19T13:08:37.039Z,2.57
2022-11-19T13:10:44.503Z,2.97
2022-11-19T13:12:51.140Z,2.93
2022-11-19T13:14:56.981Z,3.03
2022-11-19T13:17:00.344Z,3.20
2022-11-19T13:19:12.902Z,3.00
2022-11-19T13:21:20.985Z,3.30
2022-11-19T13:23:38.572Z,3.10
2022-11-19T13:25:49.974Z,3.70
2022-11-19T13:27:54.697Z,3.73
2022-11-19T13:30:04.465Z,4.10
2022-11-19T13:32:26.395Z,3.63
2022-11-19T13:34:45.350Z,4.80
2022-11-19T13:36:57.988Z,4.53
2022-11-19T13:39:11.510Z,4.87
2022-11-19T13:41:16.714Z,4.93
2022-11-19T13:43:39.967Z,4.73
2022-11-19T13:45:44.850Z,4.93
2022-11-19T13:47:58.023Z,5.40
2022-11-19T13:50:06.307Z,5.37
2022-11-19T13:52:26.034Z,5.00
2022-11-19T13:54:38.767Z,5.20
2022-11-19T13:56:50.174Z,5.47
2022-11-19T13:58:54.965Z,5.17
2022-11-19T14:01:26.315Z,5.20
2022-11-19T14:03:46.859Z,5.20
2022-11-19T14:06:19.573Z,5.13
2022-11-19T14:08:24.816Z,4.57
2022-11-19T14:11:00.521Z,4.60
2022-11-19T14:13:20.600Z,5.17
2022-11-19T14:16:02.137Z,4.50
2022-11-19T14:18:31.498Z,4.20
2022-11-19T14:20:59.050Z,4.37
2022-11-19T14:23:19.297Z,4.57
2022-11-19T14:25:57.794Z,3.70
2022-11-19T14:28:40.034Z,5.17
2022-11-19T14:31:03.702Z,4.30
2022-11-19T14:33:44.074Z,4.37
2022-11-19T14:35:46.403Z,4.70
2022-11-19T14:38:00.013Z,5.57
2022-11-19T14:40:28.071Z,4.90
2022-11-19T14:42:29.823Z,5.20
2022-11-19T14:44:33.297Z,5.17
2022-11-19T14:46:40.307Z,5.90
2022-11-19T14:48:42.066Z,6.73
2022-11-19T14:50:43.838Z,6.67
2022-11-19T14:52:56.690Z,6.17
2022-11-19T14:55:21.714Z,6.30
2022-11-19T14:57:39.355Z,6.20
2022-11-19T14:59:47.181Z,6.63
2022-11-19T15:02:03.337Z,6.00
2022-11-19T15:04:10.712Z,8.27
2022-11-19T15:06:17.590Z,6.87
2022-11-19T15:08:19.300Z,6.90
2022-11-19T15:10:27.345Z,7.93
2022-11-19T15:13:13.544Z,7.27
2022-11-19T15:15:21.208Z,7.43
2022-11-19T15:17:23.020Z,8.23
2022-11-19T15:19:58.145Z,7.57
2022-11-19T15:22:08.702Z,7.00
2022-11-19T15:24:41.281Z,8.27
2022-11-19T15:26:54.938Z,10.10
2022-11-19T15:29:22.713Z,45.80
2022-11-19T15:31:43.402Z,15.60
2022-11-19T15:34:00.150Z,11.67
2022-11-19T15:36:08.590Z,12.87
2022-11-19T15:38:18.489Z,14.00
2022-11-19T15:40:29.290Z,20.03
2022-11-19T15:42:42.067Z,13.67
2022-11-19T15:44:57.035Z,42.87
2022-11-19T15:47:01.712Z,16.00
2022-11-19T15:49:27.926Z,30.70
2022-11-19T15:51:37.953Z,27.70
2022-11-19T15:54:03.069Z,33.23
2022-11-19T15:56:11.828Z,25.43
2022-11-19T15:58:16.129Z,32.80
2022-11-19T16:00:20.965Z,52.10
2022-11-19T16:02:33.289Z,37.37
2022-11-19T16:04:39.293Z,22.90
2022-11-19T16:06:44.816Z,32.53
2022-11-19T16:08:51.187Z,28.27
2022-11-19T16:11:17.282Z,38.50
2022-11-19T16:13:43.158Z,29.53
2022-11-19T16:16:11.439Z,21.53
2022-11-19T16:18:14.781Z,29.80
2022-11-19T16:20:20.551Z,23.37
2022-11-19T16:22:22.971Z,15.17
2022-11-19T16:24:45.214Z,14.03
2022-11-19T16:26:48.616Z,17.23
2022-11-19T16:28:50.464Z,17.60
2022-11-19T16:31:05.664Z,17.37
2022-11-19T16:33:14.828Z,17.37
2022-11-19T16:35:34.429Z,11.90
2022-11-19T16:37:36.505Z,12.07
2022-11-19T16:39:40.165Z,12.57
2022-11-19T16:42:00.892Z,11.37
2022-11-19T16:44:12.242Z,11.10
2022-11-19T16:46:17.132Z,13.90
2022-11-19T16:48:49.850Z,24.37
2022-11-19T16:50:51.603Z,12.13
2022-11-19T16:52:54.315Z,13.30
2022-11-19T16:54:56.000Z,13.97
2022-11-19T16:56:57.802Z,22.97
2022-11-19T16:59:04.583Z,17.33
2022-11-19T17:01:06.570Z,12.80
2022-11-19T17:03:19.283Z,13.57
2022-11-19T17:05:24.723Z,13.07
2022-11-19T17:07:27.813Z,13.27
2022-11-19T17:09:44.438Z,12.23
2022-11-19T17:12:04.691Z,14.93
2022-11-19T17:14:28.112Z,19.87
2022-11-19T17:16:29.878Z,14.33
2022-11-19T17:18:34.930Z,15.00
2022-11-19T17:20:36.577Z,14.83
2022-11-19T17:22:40.120Z,13.67
2022-11-19T17:24:45.344Z,15.70
2022-11-19T17:26:49.220Z,15.27
2022-11-19T17:28:56.192Z,15.70
2022-11-19T17:30:58.670Z,16.20
2022-11-19T17:33:03.737Z,18.97
2022-11-19T17:35:09.397Z,15.93
2022-11-19T17:37:11.162Z,20.70
2022-11-19T17:39:14.687Z,18.73
2022-11-19T17:41:39.874Z,75.50
2022-11-19T17:44:00.386Z,55.10
2022-11-19T17:46:02.035Z,37.43
2022-11-19T17:48:26.081Z,19.63
2022-11-19T17:50:27.723Z,20.87
2022-11-19T17:52:31.687Z,19.53
2022-11-19T17:54:34.259Z,15.43
2022-11-19T17:56:35.981Z,14.87
2022-11-19T17:58:38.040Z,14.30
2022-11-19T18:00:40.001Z,11.90
2022-11-19T18:02:41.677Z,11.03
2022-11-19T18:04:44.738Z,10.47
2022-11-19T18:06:47.259Z,11.40
2022-11-19T18:08:49.016Z,12.70
2022-11-19T18:10:50.742Z,11.37
2022-11-19T18:12:52.478Z,15.23
2022-11-19T18:14:59.264Z,11.93
2022-11-19T18:17:02.519Z,13.10
2022-11-19T18:19:13.527Z,13.77
2022-11-19T18:21:20.657Z,15.23
2022-11-19T18:23:22.279Z,17.90
2022-11-19T18:25:24.079Z,28.20
2022-11-19T18:27:25.784Z,20.47
2022-11-19T18:29:31.984Z,22.77
2022-11-19T18:31:45.512Z,12.97
2022-11-19T18:33:50.646Z,12.53
2022-11-19T18:35:52.296Z,13.40
2022-11-19T18:37:54.259Z,21.33
2022-11-19T18:39:56.084Z,14.50
2022-11-19T18:41:57.723Z,12.10
2022-11-19T18:44:18.302Z,14.97
2022-11-19T18:46:20.248Z,14.07
2022-11-19T18:48:21.935Z,12.97
2022-11-19T18:50:29.335Z,13.70
2022-11-19T18:52:31.651Z,13.20
2022-11-19T18:54:33.847Z,15.43
2022-11-19T18:56:35.522Z,18.87
2022-11-19T18:58:37.192Z,29.30
2022-11-19T19:00:39.085Z,27.40
2022-11-19T19:02:40.712Z,27.23
2022-11-19T19:04:42.941Z,28.40
2022-11-19T19:06:45.295Z,23.40
2022-11-19T19:08:49.398Z,23.50
2022-11-19T19:10:51.159Z,26.13
2022-11-19T19:12:52.820Z,23.00
2022-11-19T19:14:56.054Z,28.43
2022-11-19T19:16:57.790Z,26.90
2022-11-19T19:19:00.443Z,31.30
2022-11-19T19:21:02.540Z,26.13
2022-11-19T19:23:04.332Z,28.60
2022-11-19T19:25:06.582Z,28.33
2022-11-19T19:27:09.025Z,23.60
2022-11-19T19:29:10.920Z,18.23
2022-11-19T19:31:17.616Z,21.30
2022-11-19T19:33:19.829Z,16.87
2022-11-19T19:35:21.696Z,16.47
2022-11-19T19:37:23.597Z,19.00
2022-11-19T19:39:25.862Z,18.70
2022-11-19T19:41:28.353Z,18.97
2022-11-19T19:43:30.628Z,19.00
2022-11-19T19:45:35.973Z,19.03
2022-11-19T19:47:37.738Z,17.17
2022-11-19T19:49:39.717Z,18.37
2022-11-19T19:51:41.784Z,17.83
2022-11-19T19:53:44.075Z,18.30
2022-11-19T19:55:45.723Z,17.43
2022-11-19T19:57:47.371Z,17.13
2022-11-19T19:59:49.023Z,17.23
2022-11-19T20:01:51.540Z,17.60
2022-11-19T20:03:55.016Z,19.67
2022-11-19T20:05:56.835Z,17.30
2022-11-19T20:07:58.600Z,18.83
2022-11-19T20:10:00.301Z,17.80
2022-11-19T20:12:02.238Z,17.97
2022-11-19T20:14:04.352Z,17.77
2022-11-19T20:16:18.302Z,18.33
2022-11-19T20:18:20.437Z,19.50
2022-11-19T20:20:22.133Z,21.47
2022-11-19T20:22:24.155Z,17.07
2022-11-19T20:24:25.853Z,18.77
2022-11-19T20:26:29.847Z,24.00
2022-11-19T20:28:32.220Z,23.67
2022-11-19T20:30:33.948Z,17.80
2022-11-19T20:32:35.647Z,16.60
2022-11-19T20:34:37.401Z,15.87
2022-11-19T20:36:39.301Z,14.70
2022-11-19T20:38:42.544Z,15.50
2022-11-19T20:40:56.380Z,15.60
2022-11-19T20:43:16.589Z,16.30
2022-11-19T20:45:18.308Z,17.57
2022-11-19T20:47:20.186Z,18.20
2022-11-19T20:49:24.843Z,18.43
2022-11-19T20:51:27.271Z,18.63
2022-11-19T20:53:29.037Z,16.30
2022-11-19T20:55:30.923Z,21.70
2022-11-19T20:57:32.575Z,22.63
2022-11-19T20:59:34.252Z,30.97
2022-11-19T21:01:36.837Z,40.97
2022-11-19T21:03:39.291Z,27.10
2022-11-19T21:05:40.994Z,17.77
2022-11-19T21:07:42.750Z,20.97
2022-11-19T21:09:44.519Z,34.37
2022-11-19T21:11:46.285Z,31.30
2022-11-19T21:13:47.905Z,24.37
2022-11-19T21:15:49.640Z,23.37
2022-11-19T21:17:51.275Z,34.47
2022-11-19T21:19:52.968Z,19.03
2022-11-19T21:21:54.756Z,23.80
2022-11-19T21:23:56.685Z,34.67
2022-11-19T21:26:07.536Z,64.10
2022-11-19T21:28:09.413Z,40.30
2022-11-19T21:30:11.996Z,59.57
2022-11-19T21:32:13.695Z,52.13
2022-11-19T21:34:17.958Z,19.50
2022-11-19T21:36:19.703Z,16.97
2022-11-19T21:38:22.481Z,16.43
2022-11-19T21:40:24.243Z,17.10
2022-11-19T21:42:25.932Z,16.67
2022-11-19T21:44:27.609Z,18.47
2022-11-19T21:46:29.470Z,17.63
2022-11-19T21:48:31.101Z,24.93
2022-11-19T21:50:33.417Z,23.53
2022-11-19T21:52:35.067Z,20.50
2022-11-19T21:54:36.713Z,28.33
2022-11-19T21:56:39.137Z,44.10
2022-11-19T21:58:40.907Z,42.77
2022-11-19T22:00:43.805Z,30.87
2022-11-19T22:02:45.647Z,67.67
2022-11-19T22:04:47.319Z,67.73
2022-11-19T22:06:49.020Z,71.40
2022-11-19T22:08:50.731Z,63.17
2022-11-19T22:10:52.388Z,72.43
2022-11-19T22:12:54.473Z,98.93
2022-11-19T22:14:56.114Z,98.63
2022-11-19T22:16:57.851Z,95.10
2022-11-19T22:19:00.138Z,80.17
2022-11-19T22:21:02.581Z,33.40
2022-11-19T22:23:04.204Z,36.47
2022-11-19T22:25:06.065Z,26.10
2022-11-19T22:27:07.756Z,34.97
2022-11-19T22:29:09.428Z,37.17
2022-11-19T22:31:11.620Z,22.50
2022-11-19T22:33:13.327Z,29.37
2022-11-19T22:35:15.105Z,41.37
2022-11-19T22:37:16.809Z,24.00
2022-11-19T22:39:19.654Z,14.90
2022-11-19T22:41:22.063Z,16.30
2022-11-19T22:43:23.773Z,17.07
2022-11-19T22:45:25.405Z,16.43
2022-11-19T22:47:27.413Z,15.10
2022-11-19T22:49:29.110Z,15.57
2022-11-19T22:51:30.797Z,15.33
2022-11-19T22:53:35.501Z,15.20
2022-11-19T22:55:37.738Z,14.13
2022-11-19T22:57:39.431Z,15.80
2022-11-19T22:59:41.185Z,14.53
2022-11-19T23:01:42.956Z,15.33
2022-11-19T23:03:45.759Z,15.00
2022-11-19T23:05:53.657Z,15.33
2022-11-19T23:07:55.326Z,15.57
2022-11-19T23:09:57.021Z,15.57
2022-11-19T23:12:17.490Z,18.63
2022-11-19T23:14:19.772Z,19.90
2022-11-19T23:16:21.411Z,15.20
2022-11-19T23:18:23.062Z,22.30
2022-11-19T23:20:24.723Z,18.33
2022-11-19T23:22:26.393Z,15.93
2022-11-19T23:24:28.156Z,15.00
2022-11-19T23:26:31.749Z,25.60
2022-11-19T23:28:34.840Z,18.03
2022-11-19T23:30:36.581Z,26.93
2022-11-19T23:32:38.301Z,13.27
2022-11-19T23:34:40.028Z,46.90
2022-11-19T23:36:42.459Z,17.70
2022-11-19T23:38:45.108Z,12.80
2022-11-19T23:40:47.237Z,13.20
2022-11-19T23:42:51.976Z,14.63
2022-11-19T23:44:53.895Z,14.73
2022-11-19T23:46:55.547Z,13.20
2022-11-19T23:48:58.790Z,14.60
2022-11-19T23:51:05.617Z,12.70
2022-11-19T23:53:07.320Z,13.93
2022-11-19T23:55:09.221Z,13.37
2022-11-19T23:57:10.921Z,11.17
2022-11-19T23:59:12.597Z,12.60
